KAZO

Kalamazoo/Battle Creek International Airport

Airport
ICAO code
KAZO
Summary
ICAO Region
NAM
ICAO Territory
Location

Kalamazoo / Battle Creek, Michigan,

Coordinates
42° 14' 2" N , 85° 33' 3" W
KCC
Airport CFIT
Altimeter Temperature Error Correction
Metar
KAZO 302353Z 21006KT 10SM BKN037 BKN055 08/03 A2983 RMK AO2 SLP107 T00780028 10117 20078 53016

Description

Kalamazoo/Battle Creek International Airport is a public use airport located 6 km southeast of the central business district of Kalamazoo, a city in Kalamazoo County, Michigan. The airport is also serves the nearby city of Battle Creek.

Climatology

Humid Continental climate (Köppen climate classification Dfb) - Variable weather patterns and a large seasonal temperature variance. Summers are often warm and humid with frequent thunderstorms and winters can be very cold with frequent snowfall and persistent snow cover.

Airport map

Aerial View

SKYbrary Partners:

Safety knowledge contributed by: